Time;durP1;ratioP1;P1;durP2;ratioP2;P2;SDS_P1;SDS_P2;PMS_P1;PMS_P2;Temp;Humidity;BMP_temperature;BMP_pressure;BME280_temperature;BME280_humidity;BME280_pressure;Samples;Min_cycle;Max_cycle;Signal;HPM_P1;HPM_P2
2022/07/24 00:00:29;;;;;;;1.55;1.08;;;22.30;55.40;;;;;;4995298;28;20026;-80
2022/07/24 00:02:54;;;;;;;1.83;0.95;;;22.30;56.10;;;;;;5011781;28;20037;-80
2022/07/24 00:05:20;;;;;;;4.38;1.15;;;22.30;56.10;;;;;;4997086;28;20113;-80
2022/07/24 00:07:45;;;;;;;1.60;1.02;;;22.20;56.10;;;;;;4995999;28;20087;-79
2022/07/24 00:10:11;;;;;;;2.60;1.38;;;22.20;56.20;;;;;;4996344;28;20030;-80
2022/07/24 00:12:37;;;;;;;3.22;1.00;;;22.20;56.30;;;;;;4996828;28;20030;-80
2022/07/24 00:15:04;;;;;;;3.58;1.60;;;22.20;55.90;;;;;;4997051;28;20125;-79
2022/07/24 00:17:30;;;;;;;1.95;1.10;;;22.10;56.90;;;;;;4995680;28;20355;-80
2022/07/24 00:19:56;;;;;;;2.50;1.30;;;22.10;56.40;;;;;;4996211;28;20077;-80
2022/07/24 00:22:23;;;;;;;3.88;1.33;;;22.00;56.30;;;;;;4996741;28;20030;-80
2022/07/24 00:24:49;;;;;;;2.67;1.50;;;22.00;56.40;;;;;;4994891;28;20026;-80
2022/07/24 00:27:15;;;;;;;1.70;1.10;;;22.00;56.60;;;;;;4996231;28;20030;-80
2022/07/24 00:29:40;;;;;;;2.05;1.20;;;22.00;57.10;;;;;;4996951;28;20026;-80
2022/07/24 00:32:06;;;;;;;3.50;1.50;;;21.90;57.00;;;;;;4995898;28;20034;-79
2022/07/24 00:34:32;;;;;;;3.22;1.17;;;21.90;56.90;;;;;;4996547;28;20105;-79
2022/07/24 00:36:57;;;;;;;1.67;0.95;;;21.90;57.30;;;;;;5007359;28;20030;-80
2022/07/24 00:39:23;;;;;;;2.10;1.20;;;21.90;56.60;;;;;;4977140;28;20023;-80
2022/07/24 00:41:52;;;;;;;2.03;1.15;;;21.80;57.00;;;;;;4976971;28;20030;-80
2022/07/24 00:44:17;;;;;;;2.63;1.20;;;21.70;57.10;;;;;;4980756;28;20153;-80
2022/07/24 00:46:45;;;;;;;1.88;1.02;;;21.70;57.20;;;;;;4996306;28;20069;-79
2022/07/24 00:49:14;;;;;;;2.45;1.23;;;21.70;57.00;;;;;;4995743;28;20051;-80
2022/07/24 00:51:45;;;;;;;2.05;1.10;;;21.70;57.80;;;;;;4996077;28;20041;-79
2022/07/24 00:54:12;;;;;;;2.65;1.20;;;21.70;57.20;;;;;;4993792;28;20026;-80
2022/07/24 00:56:40;;;;;;;2.13;1.10;;;21.60;58.70;;;;;;4995104;28;20398;-79
2022/07/24 00:59:06;;;;;;;1.63;1.00;;;21.50;58.20;;;;;;4995542;28;20076;-80
2022/07/24 01:01:32;;;;;;;2.38;1.27;;;21.50;57.80;;;;;;4995257;28;20034;-79
2022/07/24 01:03:58;;;;;;;2.90;0.98;;;21.50;57.90;;;;;;4996080;28;20031;-80
2022/07/24 01:06:26;;;;;;;2.25;1.45;;;21.50;58.00;;;;;;4995537;28;20030;-80
2022/07/24 01:08:52;;;;;;;2.33;1.00;;;21.40;58.30;;;;;;4995480;28;20076;-80
2022/07/24 01:11:19;;;;;;;2.90;1.30;;;21.40;58.20;;;;;;4995554;28;20108;-79
2022/07/24 01:13:47;;;;;;;1.50;1.05;;;21.40;58.20;;;;;;4995744;28;20034;-80
2022/07/24 01:16:13;;;;;;;2.97;1.08;;;21.30;58.70;;;;;;4994464;28;20050;-79
2022/07/24 01:18:38;;;;;;;2.15;1.10;;;21.30;57.90;;;;;;4995349;28;20038;-79
2022/07/24 01:21:05;;;;;;;2.83;0.93;;;21.30;58.20;;;;;;4995940;28;20105;-79
2022/07/24 01:23:31;;;;;;;1.83;0.98;;;21.30;58.30;;;;;;4995359;28;20530;-79
2022/07/24 01:25:57;;;;;;;1.38;0.98;;;21.30;58.50;;;;;;4995665;28;20038;-79
2022/07/24 01:28:23;;;;;;;1.58;1.10;;;21.20;59.00;;;;;;4995247;28;20023;-79
2022/07/24 01:30:49;;;;;;;2.30;1.30;;;21.20;58.40;;;;;;4994481;28;20027;-80
2022/07/24 01:33:15;;;;;;;1.95;1.02;;;21.20;59.10;;;;;;4995160;28;20084;-80
2022/07/24 01:35:42;;;;;;;1.83;1.10;;;21.20;58.00;;;;;;4995759;28;20105;-79
2022/07/24 01:38:09;;;;;;;1.70;1.30;;;21.20;58.30;;;;;;4995321;28;20034;-79
2022/07/24 01:40:37;;;;;;;2.17;1.30;;;21.20;58.50;;;;;;4994560;28;20482;-79
2022/07/24 01:43:03;;;;;;;2.40;0.98;;;21.10;59.00;;;;;;4995848;28;20113;-79
2022/07/24 01:45:29;;;;;;;1.40;0.93;;;21.00;59.50;;;;;;4994390;28;20057;-79
2022/07/24 01:47:54;;;;;;;1.70;1.33;;;20.90;59.20;;;;;;4995289;28;20065;-80
2022/07/24 01:50:20;;;;;;;1.77;0.90;;;20.90;59.30;;;;;;4994901;28;20575;-79
2022/07/24 01:52:46;;;;;;;1.88;1.13;;;20.80;59.60;;;;;;4994944;28;20033;-79
2022/07/24 01:55:11;;;;;;;2.25;1.27;;;20.80;59.50;;;;;;4995610;28;20034;-80
2022/07/24 01:57:37;;;;;;;1.73;0.98;;;20.80;59.90;;;;;;4995457;28;20083;-79
2022/07/24 02:00:05;;;;;;;1.88;0.88;;;20.80;59.70;;;;;;4994986;28;20022;-79
2022/07/24 02:02:31;;;;;;;1.77;1.00;;;20.80;60.00;;;;;;4995533;28;20037;-80
2022/07/24 02:04:56;;;;;;;3.50;1.30;;;20.80;59.70;;;;;;4995486;28;20034;-79
2022/07/24 02:07:22;;;;;;;1.90;1.05;;;20.80;59.80;;;;;;4994876;28;20038;-79
2022/07/24 02:09:48;;;;;;;2.05;1.30;;;20.80;59.70;;;;;;4994949;28;20045;-79
2022/07/24 02:12:13;;;;;;;1.92;1.33;;;20.80;59.50;;;;;;4997012;28;20030;-79
2022/07/24 02:14:42;;;;;;;4.20;1.40;;;20.80;59.80;;;;;;4997881;28;20050;-79
2022/07/24 02:17:07;;;;;;;2.17;1.50;;;20.80;59.80;;;;;;4998647;28;20082;-79
2022/07/24 02:19:33;;;;;;;2.25;1.20;;;20.70;60.50;;;;;;4999029;28;20571;-79
2022/07/24 02:21:59;;;;;;;2.47;1.10;;;20.50;60.70;;;;;;4997918;28;20030;-79
2022/07/24 02:24:24;;;;;;;2.17;1.30;;;20.50;60.80;;;;;;4997765;28;20030;-79
2022/07/24 02:26:50;;;;;;;2.28;1.10;;;20.40;60.80;;;;;;4998980;28;20034;-79
2022/07/24 02:29:17;;;;;;;1.73;1.35;;;20.40;61.00;;;;;;4998772;28;20035;-79
2022/07/24 02:31:45;;;;;;;3.88;1.20;;;20.40;61.00;;;;;;4998190;28;20121;-79
2022/07/24 02:34:10;;;;;;;2.35;1.42;;;20.40;61.00;;;;;;5014105;28;20037;-79
2022/07/24 02:36:36;;;;;;;2.72;1.45;;;20.40;61.20;;;;;;4998772;28;20023;-79
2022/07/24 02:39:03;;;;;;;2.13;1.25;;;20.30;61.40;;;;;;4998213;28;20034;-79
2022/07/24 02:41:29;;;;;;;2.42;1.30;;;20.20;61.80;;;;;;4998217;28;20011;-79
2022/07/24 02:43:55;;;;;;;2.30;1.30;;;20.30;61.40;;;;;;4998445;28;20022;-79
2022/07/24 02:46:21;;;;;;;1.98;1.10;;;20.20;61.70;;;;;;4998260;28;20057;-79
2022/07/24 02:48:46;;;;;;;1.70;1.10;;;20.20;61.70;;;;;;4998325;28;20030;-79
2022/07/24 02:51:12;;;;;;;1.85;1.02;;;20.20;61.90;;;;;;4998117;28;20952;-79
2022/07/24 02:54:28;;;;;;;3.15;1.30;;;20.20;61.60;;;;;;4996919;28;20033;-79
2022/07/24 02:56:53;;;;;;;3.28;1.27;;;20.30;61.50;;;;;;4998039;28;20029;-79
2022/07/24 02:59:19;;;;;;;1.60;1.05;;;20.30;62.30;;;;;;5010039;28;20494;-79
2022/07/24 03:01:44;;;;;;;2.13;1.40;;;20.20;62.30;;;;;;4994803;28;20104;-79
2022/07/24 03:04:10;;;;;;;3.10;1.10;;;20.20;61.50;;;;;;4998225;28;20030;-79
2022/07/24 03:06:36;;;;;;;1.92;1.40;;;20.10;62.10;;;;;;4998167;28;20054;-79
2022/07/24 03:09:03;;;;;;;2.20;1.38;;;20.10;62.50;;;;;;4998024;28;20030;-79
2022/07/24 03:11:31;;;;;;;1.60;1.10;;;20.00;62.20;;;;;;4997532;28;20033;-79
2022/07/24 03:13:56;;;;;;;1.90;1.40;;;19.90;62.30;;;;;;4997913;28;20448;-79
2022/07/24 03:16:22;;;;;;;2.15;1.17;;;20.00;62.30;;;;;;4997412;28;20050;-79
2022/07/24 03:18:48;;;;;;;2.03;1.30;;;20.00;62.40;;;;;;4998207;28;20034;-79
2022/07/24 03:21:15;;;;;;;1.63;1.23;;;19.90;62.50;;;;;;4997638;28;20061;-79
2022/07/24 03:23:41;;;;;;;2.53;1.35;;;19.90;62.40;;;;;;4997121;28;20033;-79
2022/07/24 03:26:07;;;;;;;2.10;1.13;;;19.90;62.40;;;;;;4997332;28;20060;-79
2022/07/24 03:28:33;;;;;;;2.15;1.17;;;19.90;62.60;;;;;;4996556;28;20030;-79
2022/07/24 03:31:00;;;;;;;3.28;1.35;;;19.80;62.60;;;;;;4997899;28;20089;-79
2022/07/24 03:33:26;;;;;;;2.22;1.30;;;19.80;62.90;;;;;;4997213;28;20057;-79
2022/07/24 03:35:52;;;;;;;1.70;1.10;;;19.70;63.00;;;;;;4997591;28;20025;-79
2022/07/24 03:38:17;;;;;;;1.90;1.13;;;19.70;63.80;;;;;;4997134;28;20046;-79
2022/07/24 03:40:43;;;;;;;2.58;1.38;;;19.70;63.80;;;;;;4997100;28;20037;-79
2022/07/24 03:43:09;;;;;;;2.22;1.33;;;19.60;63.60;;;;;;4997251;28;20030;-79
2022/07/24 03:45:37;;;;;;;1.50;1.10;;;19.60;63.40;;;;;;4997687;28;20161;-79
2022/07/24 03:48:04;;;;;;;2.08;1.30;;;19.50;64.00;;;;;;4997392;28;20059;-79
2022/07/24 03:50:29;;;;;;;3.42;1.35;;;19.40;63.90;;;;;;4996727;28;20031;-79
2022/07/24 03:52:55;;;;;;;2.42;1.70;;;19.40;63.80;;;;;;4996364;28;20038;-79
2022/07/24 03:55:21;;;;;;;2.63;1.40;;;19.40;64.40;;;;;;4996909;28;20109;-79
2022/07/24 03:57:46;;;;;;;1.55;1.20;;;19.30;64.70;;;;;;4996303;28;20054;-79
2022/07/24 04:00:13;;;;;;;2.38;1.60;;;19.30;64.60;;;;;;4997180;28;20401;-79
2022/07/24 04:02:42;;;;;;;3.50;1.65;;;19.30;65.40;;;;;;5012255;28;20042;-79
2022/07/24 04:05:08;;;;;;;2.83;1.40;;;19.30;65.20;;;;;;4996528;28;20030;-79
2022/07/24 04:07:37;;;;;;;2.72;1.70;;;19.30;65.20;;;;;;4995892;28;20031;-79
2022/07/24 04:10:05;;;;;;;2.83;1.73;;;19.30;65.10;;;;;;4997310;28;20088;-79
2022/07/24 04:12:31;;;;;;;3.40;1.80;;;19.30;65.00;;;;;;4996785;28;20022;-79
2022/07/24 04:14:57;;;;;;;2.63;1.80;;;19.30;65.50;;;;;;4996083;28;20404;-79
2022/07/24 04:17:22;;;;;;;5.55;2.15;;;19.20;66.20;;;;;;4996485;28;20030;-79
2022/07/24 04:19:48;;;;;;;3.25;2.20;;;19.20;66.10;;;;;;5011918;28;20035;-79
2022/07/24 04:22:14;;;;;;;3.25;1.98;;;19.20;66.20;;;;;;4996171;28;20026;-79
2022/07/24 04:24:39;;;;;;;3.28;2.03;;;19.20;65.10;;;;;;4996399;28;20038;-79
2022/07/24 04:27:05;;;;;;;5.07;2.28;;;19.10;66.90;;;;;;4996582;28;20183;-79
2022/07/24 04:29:31;;;;;;;4.30;2.33;;;19.00;67.00;;;;;;4996460;28;20034;-79
2022/07/24 04:31:57;;;;;;;4.07;1.92;;;19.10;66.30;;;;;;4996294;28;20448;-79
2022/07/24 04:34:22;;;;;;;2.42;1.63;;;19.10;65.50;;;;;;5010915;28;20026;-79
2022/07/24 04:36:50;;;;;;;6.13;1.88;;;19.10;66.10;;;;;;4995899;28;20030;-79
2022/07/24 04:39:16;;;;;;;3.38;1.85;;;19.10;66.40;;;;;;4994859;28;20026;-79
2022/07/24 04:41:41;;;;;;;3.53;1.75;;;19.20;65.90;;;;;;4995239;28;20046;-79
2022/07/24 04:44:07;;;;;;;3.13;2.03;;;19.20;65.70;;;;;;4995656;28;20034;-79
2022/07/24 04:46:33;;;;;;;5.75;2.20;;;19.20;65.80;;;;;;4996314;28;20042;-79
2022/07/24 04:48:59;;;;;;;3.80;1.85;;;19.20;66.00;;;;;;4995872;28;20037;-79
2022/07/24 04:51:25;;;;;;;3.75;1.65;;;19.10;65.80;;;;;;4996192;28;20477;-79
2022/07/24 04:53:53;;;;;;;4.85;1.90;;;19.10;66.30;;;;;;4990882;28;20053;-79
2022/07/24 04:56:20;;;;;;;2.97;2.00;;;19.10;66.30;;;;;;4991925;28;20049;-79
2022/07/24 04:58:47;;;;;;;3.92;2.38;;;19.00;65.80;;;;;;4976633;28;20130;-79
2022/07/24 05:01:12;;;;;;;3.13;2.22;;;19.00;66.70;;;;;;4989056;28;20034;-79
2022/07/24 05:03:38;;;;;;;3.55;1.98;;;18.90;66.60;;;;;;4996077;28;20097;-79
2022/07/24 05:06:04;;;;;;;3.92;2.08;;;18.90;66.40;;;;;;4995506;28;20033;-79
2022/07/24 05:08:30;;;;;;;3.38;1.95;;;18.90;67.00;;;;;;4996143;28;20026;-79
2022/07/24 05:10:55;;;;;;;3.28;2.25;;;18.80;67.10;;;;;;4995445;28;20030;-79
2022/07/24 05:13:21;;;;;;;3.22;2.17;;;18.90;67.40;;;;;;4995388;28;20041;-79
2022/07/24 05:15:46;;;;;;;3.33;2.42;;;18.90;67.70;;;;;;4995999;28;20043;-79
2022/07/24 05:18:12;;;;;;;3.28;1.92;;;18.80;67.70;;;;;;4995829;28;20026;-79
2022/07/24 05:20:38;;;;;;;3.55;2.30;;;18.80;68.40;;;;;;4995504;28;20037;-79
2022/07/24 05:23:03;;;;;;;3.70;2.35;;;18.80;68.30;;;;;;4995894;28;20033;-79
2022/07/24 05:25:29;;;;;;;6.22;2.60;;;18.70;68.70;;;;;;4995780;28;20117;-79
2022/07/24 05:27:55;;;;;;;4.53;2.30;;;18.80;68.80;;;;;;4995800;28;20026;-79
2022/07/24 05:30:20;;;;;;;2.88;2.10;;;18.80;68.00;;;;;;4994680;28;20046;-79
2022/07/24 05:32:46;;;;;;;3.65;2.20;;;18.80;68.50;;;;;;4995867;28;20098;-79
2022/07/24 05:35:12;;;;;;;3.65;2.42;;;18.90;68.20;;;;;;4995247;28;20035;-79
2022/07/24 05:37:37;;;;;;;4.07;2.30;;;19.00;67.80;;;;;;4995697;28;20458;-79
2022/07/24 05:40:04;;;;;;;4.68;2.35;;;19.00;67.60;;;;;;4995282;28;20456;-79
2022/07/24 05:42:30;;;;;;;3.90;2.38;;;19.00;67.60;;;;;;4995598;28;20057;-79
2022/07/24 05:44:56;;;;;;;2.92;2.47;;;18.90;68.20;;;;;;4995163;28;20060;-79
2022/07/24 05:47:21;;;;;;;3.50;2.22;;;18.90;68.00;;;;;;4997981;28;20037;-79
2022/07/24 05:49:47;;;;;;;4.05;2.33;;;18.90;68.40;;;;;;5014026;28;20161;-79
2022/07/24 05:52:13;;;;;;;3.80;2.28;;;18.90;68.40;;;;;;4999093;28;20460;-79
2022/07/24 05:54:38;;;;;;;3.15;2.28;;;19.00;67.90;;;;;;4998215;28;20033;-79
2022/07/24 05:57:04;;;;;;;4.00;2.58;;;18.90;68.70;;;;;;4999655;28;20061;-79
2022/07/24 05:59:29;;;;;;;4.25;1.98;;;18.90;68.60;;;;;;4998955;28;20069;-79
2022/07/24 06:01:55;;;;;;;4.20;2.40;;;19.00;68.40;;;;;;4999581;28;20027;-79
2022/07/24 06:04:21;;;;;;;3.70;2.47;;;19.00;68.20;;;;;;4999205;28;20108;-79
2022/07/24 06:06:47;;;;;;;3.53;2.03;;;19.00;68.30;;;;;;4998256;28;20117;-79
2022/07/24 06:09:13;;;;;;;5.03;2.25;;;19.20;67.50;;;;;;4998535;28;20074;-79
2022/07/24 06:11:39;;;;;;;4.38;2.50;;;19.20;67.30;;;;;;4999043;28;20058;-79
2022/07/24 06:14:04;;;;;;;3.53;2.28;;;19.20;67.30;;;;;;4999002;28;20037;-79
2022/07/24 06:16:30;;;;;;;7.35;2.38;;;19.30;67.50;;;;;;4998620;28;20049;-80
2022/07/24 06:18:56;;;;;;;4.03;3.00;;;19.20;67.90;;;;;;4999148;28;20548;-79
2022/07/24 06:21:21;;;;;;;8.55;3.25;;;19.20;68.10;;;;;;4998617;28;20046;-79
2022/07/24 06:23:47;;;;;;;3.00;2.20;;;19.30;67.70;;;;;;4999016;28;20034;-80
2022/07/24 06:26:13;;;;;;;5.10;2.47;;;19.30;67.50;;;;;;4998485;28;20463;-79
2022/07/24 06:28:39;;;;;;;3.20;2.28;;;19.30;67.40;;;;;;4998311;28;20034;-79
2022/07/24 06:31:04;;;;;;;3.72;2.28;;;19.40;66.60;;;;;;4997819;28;20026;-79
2022/07/24 06:33:30;;;;;;;4.50;2.47;;;19.40;67.60;;;;;;4998486;28;20031;-79
2022/07/24 06:35:56;;;;;;;3.35;2.03;;;19.50;67.20;;;;;;4997404;28;20117;-79
2022/07/24 06:38:21;;;;;;;5.20;2.08;;;19.50;67.00;;;;;;4998360;28;20041;-79
2022/07/24 06:40:47;;;;;;;3.45;2.35;;;19.60;66.60;;;;;;4998783;28;20879;-80
2022/07/24 06:43:13;;;;;;;2.50;1.63;;;19.60;66.60;;;;;;5012383;28;20026;-79
2022/07/24 06:45:38;;;;;;;3.58;1.90;;;19.60;66.70;;;;;;4997971;28;20026;-79
2022/07/24 06:48:04;;;;;;;2.88;1.88;;;19.70;67.10;;;;;;4998540;28;20022;-80
2022/07/24 06:50:30;;;;;;;3.03;1.83;;;19.70;66.80;;;;;;4998812;28;20069;-79
2022/07/24 06:52:56;;;;;;;3.13;1.90;;;19.70;66.90;;;;;;4996567;28;20032;-79
2022/07/24 06:55:22;;;;;;;3.65;2.55;;;19.70;67.00;;;;;;4998535;28;20110;-79
2022/07/24 06:57:48;;;;;;;2.50;1.80;;;19.80;66.80;;;;;;4997112;28;20037;-80
2022/07/24 07:00:14;;;;;;;3.83;2.05;;;19.80;66.70;;;;;;4997793;28;20030;-80
2022/07/24 07:02:40;;;;;;;2.55;1.50;;;19.90;66.40;;;;;;4997876;28;20022;-79
2022/07/24 07:05:06;;;;;;;3.38;2.05;;;20.00;67.10;;;;;;4997805;28;20046;-79
2022/07/24 07:07:32;;;;;;;4.15;2.30;;;20.00;66.70;;;;;;5013444;28;20026;-80
2022/07/24 07:09:58;;;;;;;3.58;1.75;;;20.10;66.90;;;;;;5013346;28;20038;-80
2022/07/24 07:12:24;;;;;;;3.53;1.75;;;20.20;66.30;;;;;;4997556;28;20033;-80
2022/07/24 07:14:49;;;;;;;4.05;1.75;;;20.30;66.40;;;;;;4997902;28;20493;-79
2022/07/24 07:17:15;;;;;;;2.08;1.67;;;20.30;66.00;;;;;;4997859;28;20041;-79
2022/07/24 07:19:42;;;;;;;2.65;1.63;;;20.40;65.70;;;;;;4997063;28;20108;-79
2022/07/24 07:22:08;;;;;;;5.00;1.70;;;20.50;65.90;;;;;;4997837;28;20379;-80
2022/07/24 07:24:34;;;;;;;3.45;1.73;;;20.80;65.30;;;;;;4997890;28;20262;-80
2022/07/24 07:27:00;;;;;;;2.97;1.40;;;21.30;63.70;;;;;;4997309;28;20030;-80
2022/07/24 07:29:26;;;;;;;3.13;1.65;;;23.10;58.70;;;;;;4997989;28;20038;-78
2022/07/24 07:31:52;;;;;;;2.33;1.27;;;25.30;54.20;;;;;;4997340;28;20027;-79
2022/07/24 07:34:17;;;;;;;2.03;1.00;;;28.50;45.20;;;;;;4996527;28;20026;-79
2022/07/24 07:36:43;;;;;;;2.33;1.10;;;31.40;39.50;;;;;;4997139;28;20030;-80
2022/07/24 07:39:10;;;;;;;2.17;1.20;;;33.60;36.20;;;;;;4999470;28;20062;-80
2022/07/24 07:41:35;;;;;;;1.70;0.80;;;35.00;31.80;;;;;;4995813;28;20065;-80
2022/07/24 07:44:01;;;;;;;1.23;0.80;;;36.30;30.10;;;;;;4997472;28;20672;-80
2022/07/24 07:46:27;;;;;;;1.52;1.08;;;37.10;29.30;;;;;;4997476;28;20029;-80
2022/07/24 07:48:53;;;;;;;3.53;1.17;;;37.80;27.80;;;;;;5012339;28;20030;-80
2022/07/24 07:51:19;;;;;;;4.25;1.00;;;38.30;26.90;;;;;;4997523;28;20034;-80
2022/07/24 07:53:44;;;;;;;1.55;0.88;;;38.50;27.20;;;;;;4997373;28;20039;-80
2022/07/24 07:56:10;;;;;;;1.30;0.82;;;38.90;26.50;;;;;;4996840;28;20116;-79
2022/07/24 07:58:36;;;;;;;2.15;0.90;;;39.20;25.40;;;;;;4995584;28;20045;-80
2022/07/24 08:01:01;;;;;;;1.27;0.90;;;39.80;25.20;;;;;;4997408;28;20409;-80
2022/07/24 08:03:27;;;;;;;2.05;1.00;;;40.30;25.40;;;;;;4997198;28;20026;-80
2022/07/24 08:05:53;;;;;;;1.65;1.10;;;40.50;23.70;;;;;;5008647;28;20066;-80
2022/07/24 08:08:19;;;;;;;2.08;0.82;;;40.70;24.50;;;;;;5008979;28;20026;-80
2022/07/24 08:10:44;;;;;;;1.48;0.68;;;40.80;24.00;;;;;;4992634;28;20050;-80
2022/07/24 08:13:12;;;;;;;1.20;0.70;;;41.20;23.80;;;;;;5011481;28;20077;-80
2022/07/24 08:15:38;;;;;;;1.67;1.02;;;40.60;23.20;;;;;;4996822;28;20035;-80
2022/07/24 08:18:04;;;;;;;1.30;0.70;;;40.70;24.40;;;;;;4997060;28;20037;-80
2022/07/24 08:20:30;;;;;;;1.63;0.90;;;41.00;23.90;;;;;;4996614;28;20035;-80
2022/07/24 08:22:56;;;;;;;1.60;0.80;;;41.20;22.30;;;;;;4996291;28;20113;-80
2022/07/24 08:25:22;;;;;;;1.70;0.70;;;41.20;22.60;;;;;;4996746;28;20034;-80
2022/07/24 08:27:48;;;;;;;2.40;0.68;;;41.80;21.00;;;;;;4995192;28;20038;-80
2022/07/24 08:30:14;;;;;;;0.80;0.50;;;41.30;21.70;;;;;;4996010;28;20109;-80
2022/07/24 08:32:40;;;;;;;1.52;0.70;;;41.80;21.70;;;;;;4995372;28;20505;-80
2022/07/24 08:35:06;;;;;;;2.10;0.90;;;42.00;20.20;;;;;;4996785;28;20026;-80
2022/07/24 08:37:39;;;;;;;1.73;0.70;;;42.30;21.00;;;;;;4995071;28;20053;-80
2022/07/24 08:40:07;;;;;;;1.00;0.70;;;42.30;20.90;;;;;;4996551;28;20104;-80
2022/07/24 08:42:34;;;;;;;1.40;0.60;;;42.50;20.70;;;;;;5011593;28;20754;-80
2022/07/24 08:44:59;;;;;;;0.80;0.60;;;42.40;20.20;;;;;;4994813;28;20481;-80
2022/07/24 08:47:27;;;;;;;2.13;0.60;;;42.50;20.60;;;;;;4995846;28;20019;-80
2022/07/24 08:49:54;;;;;;;1.70;0.80;;;42.30;20.70;;;;;;4996383;28;20153;-80
2022/07/24 08:52:24;;;;;;;1.23;0.50;;;42.20;20.80;;;;;;4995888;28;20018;-81
2022/07/24 08:54:50;;;;;;;1.15;0.70;;;42.60;19.10;;;;;;4995358;28;20126;-81
2022/07/24 08:57:16;;;;;;;1.35;0.80;;;43.10;19.10;;;;;;5011523;28;20026;-80
2022/07/24 08:59:41;;;;;;;1.30;0.60;;;43.40;19.60;;;;;;4996224;28;20039;-81
2022/07/24 09:02:08;;;;;;;1.35;0.63;;;43.00;19.50;;;;;;4995598;28;20044;-80
2022/07/24 09:04:48;;;;;;;1.27;0.77;;;43.40;19.30;;;;;;4996072;28;20037;-81
2022/07/24 09:07:24;;;;;;;1.45;0.90;;;43.50;19.50;;;;;;5011191;28;20022;-80
2022/07/24 09:10:06;;;;;;;1.58;0.70;;;43.40;19.30;;;;;;4995714;28;20030;-81
2022/07/24 09:12:34;;;;;;;1.52;0.90;;;43.70;19.60;;;;;;4996162;28;20022;-81
2022/07/24 09:15:01;;;;;;;1.50;0.60;;;43.50;18.70;;;;;;5011039;28;20053;-81
2022/07/24 09:17:27;;;;;;;1.70;0.60;;;43.60;18.80;;;;;;4995887;28;20102;-81
2022/07/24 09:19:57;;;;;;;1.15;0.70;;;43.40;19.10;;;;;;4995569;28;20085;-81
2022/07/24 09:22:33;;;;;;;1.55;0.88;;;43.70;19.40;;;;;;4995554;28;20382;-80
2022/07/24 09:25:13;;;;;;;1.30;0.80;;;43.60;19.90;;;;;;4995884;28;20084;-80
2022/07/24 09:27:44;;;;;;;1.40;0.75;;;43.50;19.70;;;;;;5010671;28;20026;-80
2022/07/24 09:30:29;;;;;;;2.00;0.95;;;43.60;19.30;;;;;;4995526;28;20050;-81
2022/07/24 09:33:12;;;;;;;1.35;0.90;;;43.80;19.00;;;;;;5010578;28;20077;-80
2022/07/24 09:35:41;;;;;;;1.65;0.70;;;43.70;18.40;;;;;;4996161;28;20026;-80
2022/07/24 09:38:10;;;;;;;1.02;0.68;;;43.10;18.70;;;;;;4995940;28;20029;-81
2022/07/24 09:40:41;;;;;;;2.33;0.77;;;42.90;18.90;;;;;;4994157;28;20114;-80
2022/07/24 09:43:12;;;;;;;1.42;0.70;;;43.00;18.70;;;;;;5010736;28;20057;-80
2022/07/24 09:45:59;;;;;;;3.03;0.90;;;42.30;18.70;;;;;;4995379;28;20062;-80
2022/07/24 09:48:26;;;;;;;1.52;0.98;;;42.60;19.00;;;;;;4995758;28;20497;-80
2022/07/24 09:50:53;;;;;;;1.33;0.80;;;42.10;19.00;;;;;;4995233;28;20453;-80
2022/07/24 09:53:20;;;;;;;;;;;42.30;19.30;;;;;;5011392;28;20019;-80
2022/07/24 09:55:57;;;;;;;2.30;0.82;;;42.20;19.30;;;;;;4995696;28;19906;-80
2022/07/24 09:58:23;;;;;;;3.70;1.00;;;42.40;19.70;;;;;;4994989;28;20113;-80
2022/07/24 10:00:50;;;;;;;2.30;0.80;;;42.60;19.60;;;;;;5000909;28;20037;-80
2022/07/24 10:03:22;;;;;;;1.20;0.77;;;42.70;19.40;;;;;;4995053;28;20027;-80
2022/07/24 10:05:53;;;;;;;1.50;0.73;;;42.40;19.00;;;;;;4995561;28;20034;-80
2022/07/24 10:08:20;;;;;;;1.60;0.90;;;42.90;18.90;;;;;;4994228;28;20038;-80
2022/07/24 10:10:48;;;;;;;2.13;0.88;;;42.40;19.00;;;;;;4995321;28;20104;-80
2022/07/24 10:13:14;;;;;;;1.95;0.70;;;42.40;19.50;;;;;;4995349;28;20030;-80
2022/07/24 10:15:52;;;;;;;3.10;0.85;;;41.80;19.80;;;;;;4994909;28;20386;-80
2022/07/24 10:18:20;;;;;;;1.85;0.90;;;41.90;19.60;;;;;;4995437;28;20026;-79
2022/07/24 10:20:46;;;;;;;1.50;0.75;;;41.80;19.60;;;;;;5009920;28;20023;-80
2022/07/24 10:23:27;;;;;;;1.77;0.80;;;41.60;19.20;;;;;;4993987;28;20031;-80
2022/07/24 10:26:05;;;;;;;1.85;0.90;;;41.20;20.10;;;;;;4994114;28;20019;-80
2022/07/24 10:28:42;;;;;;;1.95;0.88;;;40.90;20.00;;;;;;4994887;28;20041;-80
2022/07/24 10:31:13;;;;;;;1.67;0.82;;;40.70;20.00;;;;;;4995510;28;20038;-79
2022/07/24 10:33:41;;;;;;;1.30;0.73;;;40.20;20.40;;;;;;4995896;28;20048;-80
2022/07/24 10:36:19;;;;;;;2.20;1.00;;;39.90;20.60;;;;;;4979580;28;20030;-79
2022/07/24 10:38:56;;;;;;;1.90;0.70;;;39.80;21.20;;;;;;4983424;28;20030;-79
2022/07/24 10:41:26;;;;;;;2.85;0.95;;;39.30;21.00;;;;;;5014177;28;20034;-79
2022/07/24 10:44:14;;;;;;;2.47;0.63;;;38.60;20.70;;;;;;4997298;28;20034;-79
2022/07/24 10:47:00;;;;;;;1.58;0.63;;;37.80;22.20;;;;;;4998185;28;20101;-79
2022/07/24 10:49:38;;;;;;;2.60;0.80;;;37.00;23.40;;;;;;4998526;28;20113;-80
2022/07/24 10:52:04;;;;;;;3.58;0.80;;;36.50;24.30;;;;;;4998649;28;20031;-79
2022/07/24 10:54:30;;;;;;;1.45;0.70;;;35.80;25.00;;;;;;4997442;28;20129;-79
2022/07/24 10:56:56;;;;;;;1.08;0.63;;;35.40;24.40;;;;;;4997809;28;20062;-79
2022/07/24 10:59:36;;;;;;;2.30;0.80;;;35.00;26.00;;;;;;5012980;28;20041;-79
2022/07/24 11:02:25;;;;;;;3.63;0.70;;;34.60;25.70;;;;;;4980710;28;20102;-79
2022/07/24 11:05:31;;;;;;;1.00;0.55;;;34.10;26.50;;;;;;5013330;28;20033;-79
2022/07/24 11:08:12;;;;;;;1.98;0.85;;;34.00;26.30;;;;;;4978738;28;20035;-79
2022/07/24 11:10:50;;;;;;;1.95;0.85;;;34.00;26.30;;;;;;4993749;28;20030;-79
2022/07/24 11:13:34;;;;;;;2.50;1.00;;;33.70;26.10;;;;;;4979894;28;20018;-79
2022/07/24 11:16:15;;;;;;;2.20;1.02;;;33.60;26.40;;;;;;4998081;28;20105;-79
2022/07/24 11:18:49;;;;;;;3.38;1.08;;;33.40;26.40;;;;;;5012323;28;20018;-79
2022/07/24 11:21:43;;;;;;;2.05;0.90;;;33.00;27.30;;;;;;4997995;28;20030;-79
2022/07/24 11:24:27;;;;;;;1.33;0.75;;;33.30;27.50;;;;;;5012698;28;20026;-79
2022/07/24 11:27:18;;;;;;;2.92;1.10;;;33.20;28.10;;;;;;4997838;28;20053;-79
2022/07/24 11:29:43;;;;;;;2.90;0.70;;;32.90;27.10;;;;;;4997176;28;20030;-79
2022/07/24 11:32:20;;;;;;;1.90;1.00;;;32.90;27.40;;;;;;4996950;28;20085;-79
2022/07/24 11:34:49;;;;;;;2.88;1.20;;;32.90;28.00;;;;;;4997609;28;20073;-78
2022/07/24 11:37:15;;;;;;;2.10;0.75;;;33.20;27.70;;;;;;4996747;28;20421;-79
2022/07/24 11:39:44;;;;;;;2.90;1.10;;;33.30;27.90;;;;;;4997701;28;20060;-79
2022/07/24 11:42:12;;;;;;;1.88;0.98;;;33.30;27.30;;;;;;4996996;28;20026;-79
2022/07/24 11:44:42;;;;;;;1.45;0.75;;;33.10;26.90;;;;;;4997116;28;20378;-79
2022/07/24 11:47:11;;;;;;;1.77;0.85;;;33.10;27.90;;;;;;4996980;28;20113;-79
2022/07/24 11:49:43;;;;;;;1.58;0.90;;;33.20;27.30;;;;;;4997368;28;20060;-79
2022/07/24 11:52:21;;;;;;;2.75;0.93;;;33.10;28.30;;;;;;4997081;28;20022;-79
2022/07/24 11:54:49;;;;;;;3.85;0.80;;;33.20;27.80;;;;;;4977588;28;20070;-79
2022/07/24 11:57:19;;;;;;;2.13;0.90;;;33.10;27.80;;;;;;4977958;28;20514;-79
2022/07/24 11:59:47;;;;;;;1.83;0.75;;;32.80;28.50;;;;;;5012006;28;20034;-79
2022/07/24 12:02:13;;;;;;;2.20;1.00;;;32.90;27.30;;;;;;4996627;28;20109;-78
2022/07/24 12:04:40;;;;;;;1.42;0.70;;;32.80;26.90;;;;;;4997206;28;20030;-79
2022/07/24 12:07:11;;;;;;;1.50;0.70;;;32.90;27.10;;;;;;4997124;28;20030;-79
2022/07/24 12:09:56;;;;;;;2.25;1.00;;;32.90;27.60;;;;;;4997072;28;20026;-79
2022/07/24 12:12:26;;;;;;;1.80;0.98;;;33.10;28.30;;;;;;4994660;28;20031;-79
2022/07/24 12:15:01;;;;;;;1.67;0.70;;;33.10;27.50;;;;;;4997053;28;20042;-79
2022/07/24 12:17:27;;;;;;;1.83;1.15;;;33.20;26.90;;;;;;5006994;28;20034;-79
2022/07/24 12:19:55;;;;;;;1.42;0.80;;;33.20;27.70;;;;;;4996897;28;20026;-78
2022/07/24 12:22:23;;;;;;;1.77;0.98;;;33.20;27.80;;;;;;4995503;28;20110;-79
2022/07/24 12:24:50;;;;;;;1.42;0.70;;;33.20;27.40;;;;;;5008298;28;20062;-79
2022/07/24 12:27:35;;;;;;;2.65;1.15;;;33.10;27.40;;;;;;4977222;28;20454;-79
2022/07/24 12:30:02;;;;;;;1.38;0.63;;;33.00;26.70;;;;;;4976601;28;20038;-78
2022/07/24 12:32:29;;;;;;;1.80;0.68;;;33.20;27.10;;;;;;4977187;28;20031;-79
2022/07/24 12:34:55;;;;;;;3.40;1.13;;;33.20;27.40;;;;;;4999357;28;20370;-79
2022/07/24 12:37:22;;;;;;;2.25;0.82;;;33.10;26.30;;;;;;4995449;28;20049;-79
2022/07/24 12:39:53;;;;;;;1.70;1.05;;;33.00;27.40;;;;;;4995996;28;20029;-79
2022/07/24 12:42:30;;;;;;;1.45;0.80;;;33.20;27.30;;;;;;4975893;28;20461;-79
2022/07/24 12:45:09;;;;;;;2.17;0.98;;;33.20;26.70;;;;;;4992267;28;20031;-79
2022/07/24 12:47:54;;;;;;;1.83;1.00;;;33.30;27.10;;;;;;4987520;28;20508;-79
2022/07/24 12:50:19;;;;;;;2.15;0.90;;;33.30;27.10;;;;;;4996244;28;20027;-79
2022/07/24 12:52:50;;;;;;;1.90;0.90;;;33.10;27.70;;;;;;4996259;28;20100;-79